Time,TemperatureF,DewpointF,PressureIn,WindDirection,WindDirectionDegrees,WindSpeedMPH,WindSpeedGustMPH,Humidity,HourlyPrecipIn,Conditions,Clouds,dailyrainin,SoftwareType,DateUTC
2013-11-13 00:01:00,21.2,20.0,30.50,West,278,0.0,5.0,95,0.00,,,0.00,Wunderground v.1.15,2013-11-13 05:01:00,
2013-11-13 00:02:00,21.1,19.9,30.50,WNW,297,1.0,5.0,95,0.00,,,0.00,Wunderground v.1.15,2013-11-13 05:02:00,
2013-11-13 00:03:00,21.1,19.9,30.50,NW,308,2.0,5.0,95,0.00,,,0.00,Wunderground v.1.15,2013-11-13 05:03:00,
2013-11-13 00:04:00,21.1,19.9,30.50,West,277,1.0,5.0,95,0.00,,,0.00,Wunderground v.1.15,2013-11-13 05:04:00,
2013-11-13 00:05:00,21.1,19.9,30.50,WSW,248,1.0,5.0,95,0.00,,,0.00,Wunderground v.1.15,2013-11-13 05:05:00,
2013-11-13 00:10:00,21.1,19.9,30.50,NNW,330,1.0,2.0,95,0.00,,,0.00,Wunderground v.1.15,2013-11-13 05:10:00,
2013-11-13 00:16:00,21.0,19.8,30.50,WNW,299,2.0,4.0,95,0.00,,,0.00,Wunderground v.1.15,2013-11-13 05:16:00,
2013-11-13 00:17:00,21.0,19.8,30.50,WNW,298,0.0,4.0,95,0.00,,,0.00,Wunderground v.1.15,2013-11-13 05:17:00,
2013-11-13 00:23:00,20.9,19.7,30.50,NW,319,2.0,3.0,95,0.00,,,0.00,Wunderground v.1.15,2013-11-13 05:23:00,
2013-11-13 00:29:00,20.7,19.2,30.50,NW,304,1.0,8.0,94,0.00,,,0.00,Wunderground v.1.15,2013-11-13 05:29:00,
2013-11-13 00:35:00,20.6,19.1,30.50,NW,318,3.0,8.0,94,0.00,,,0.00,Wunderground v.1.15,2013-11-13 05:35:00,
2013-11-13 00:40:00,20.4,18.9,30.50,WNW,287,1.0,4.0,94,0.00,,,0.00,Wunderground v.1.15,2013-11-13 05:40:00,
2013-11-13 00:45:00,20.3,18.8,30.50,NW,306,1.0,7.0,94,0.00,,,0.00,Wunderground v.1.15,2013-11-13 05:45:00,
2013-11-13 00:51:00,20.2,18.8,30.50,WNW,293,4.0,4.0,94,0.00,,,0.00,Wunderground v.1.15,2013-11-13 05:51:00,
2013-11-13 00:56:00,20.1,18.7,30.50,NW,312,7.0,7.0,94,0.00,,,0.00,Wunderground v.1.15,2013-11-13 05:56:00,
2013-11-13 01:02:00,20.0,18.3,30.50,NW,313,7.0,7.0,93,0.00,,,0.00,Wunderground v.1.15,2013-11-13 06:02:00,
2013-11-13 01:08:00,19.8,18.1,30.50,WNW,297,1.0,11.0,93,0.00,,,0.00,Wunderground v.1.15,2013-11-13 06:08:00,
2013-11-13 01:13:00,19.8,18.1,30.50,NNW,337,4.0,5.0,93,0.00,,,0.00,Wunderground v.1.15,2013-11-13 06:13:00,
2013-11-13 01:18:00,19.8,18.1,30.51,NE,36,2.0,5.0,93,0.00,,,0.00,Wunderground v.1.15,2013-11-13 06:18:00,
2013-11-13 01:24:00,19.8,18.1,30.51,NW,326,6.0,6.0,93,0.00,,,0.00,Wunderground v.1.15,2013-11-13 06:24:00,
2013-11-13 01:30:00,19.8,18.1,30.51,WNW,302,7.0,7.0,93,0.00,,,0.00,Wunderground v.1.15,2013-11-13 06:30:00,
2013-11-13 01:36:00,19.7,18.0,30.51,NNW,328,3.0,7.0,93,0.00,,,0.00,Wunderground v.1.15,2013-11-13 06:36:00,
2013-11-13 01:42:00,19.7,18.0,30.51,NW,304,1.0,4.0,93,0.00,,,0.00,Wunderground v.1.15,2013-11-13 06:42:00,
2013-11-13 01:47:00,19.7,18.0,30.52,WSW,248,3.0,4.0,93,0.00,,,0.00,Wunderground v.1.15,2013-11-13 06:47:00,
2013-11-13 01:53:00,19.6,17.7,30.52,WNW,302,2.0,4.0,92,0.00,,,0.00,Wunderground v.1.15,2013-11-13 06:53:00,
2013-11-13 01:58:00,19.6,17.7,30.52,West,270,3.0,4.0,92,0.00,,,0.00,Wunderground v.1.15,2013-11-13 06:58:00,
2013-11-13 02:03:00,19.6,17.7,30.52,WSW,256,2.0,5.0,92,0.00,,,0.00,Wunderground v.1.15,2013-11-13 07:03:00,
2013-11-13 02:08:00,19.6,17.7,30.51,WNW,300,1.0,9.0,92,0.00,,,0.00,Wunderground v.1.15,2013-11-13 07:08:00,
2013-11-13 02:13:00,19.5,17.6,30.52,West,276,5.0,5.0,92,0.00,,,0.00,Wunderground v.1.15,2013-11-13 07:13:00,
2013-11-13 02:18:00,19.4,17.2,30.52,WNW,290,7.0,7.0,91,0.00,,,0.00,Wunderground v.1.15,2013-11-13 07:18:00,
2013-11-13 02:24:00,19.3,17.1,30.52,ENE,75,0.0,6.0,91,0.00,,,0.00,Wunderground v.1.15,2013-11-13 07:24:00,
2013-11-13 02:29:00,19.2,17.0,30.52,WSW,241,2.0,6.0,91,0.00,,,0.00,Wunderground v.1.15,2013-11-13 07:29:00,
2013-11-13 02:34:00,19.1,16.7,30.52,WNW,285,3.0,6.0,90,0.00,,,0.00,Wunderground v.1.15,2013-11-13 07:34:00,
2013-11-13 02:39:00,19.0,16.6,30.52,NW,322,3.0,6.0,90,0.00,,,0.00,Wunderground v.1.15,2013-11-13 07:39:00,
2013-11-13 02:44:00,18.8,16.4,30.52,NE,49,1.0,6.0,90,0.00,,,0.00,Wunderground v.1.15,2013-11-13 07:44:00,
2013-11-13 02:49:00,18.5,16.1,30.52,WNW,294,4.0,6.0,90,0.00,,,0.00,Wunderground v.1.15,2013-11-13 07:49:00,
2013-11-13 02:54:00,18.3,15.9,30.52,NNW,332,1.0,6.0,90,0.00,,,0.00,Wunderground v.1.15,2013-11-13 07:54:00,
2013-11-13 02:59:00,18.1,15.7,30.52,WNW,298,2.0,6.0,90,0.00,,,0.00,Wunderground v.1.15,2013-11-13 07:59:00,
2013-11-13 03:04:00,18.0,15.6,30.52,SE,130,0.0,5.0,90,0.00,,,0.00,Wunderground v.1.15,2013-11-13 08:04:00,
2013-11-13 03:09:00,17.8,15.4,30.52,West,278,1.0,5.0,90,0.00,,,0.00,Wunderground v.1.15,2013-11-13 08:09:00,
2013-11-13 03:14:00,17.7,15.5,30.52,NW,309,2.0,6.0,91,0.00,,,0.00,Wunderground v.1.15,2013-11-13 08:14:00,
2013-11-13 03:19:00,17.5,15.3,30.52,WSW,245,5.0,6.0,91,0.00,,,0.00,Wunderground v.1.15,2013-11-13 08:19:00,
2013-11-13 03:24:00,17.4,15.2,30.52,WSW,239,4.0,5.0,91,0.00,,,0.00,Wunderground v.1.15,2013-11-13 08:24:00,
2013-11-13 03:29:00,17.3,15.1,30.52,WNW,292,1.0,6.0,91,0.00,,,0.00,Wunderground v.1.15,2013-11-13 08:29:00,
2013-11-13 03:34:00,17.1,15.2,30.52,SW,232,1.0,5.0,92,0.00,,,0.00,Wunderground v.1.15,2013-11-13 08:34:00,
2013-11-13 03:39:00,17.1,15.2,30.52,NW,312,1.0,5.0,92,0.00,,,0.00,Wunderground v.1.15,2013-11-13 08:39:00,
2013-11-13 03:44:00,17.2,15.5,30.52,WNW,297,5.0,8.0,93,0.00,,,0.00,Wunderground v.1.15,2013-11-13 08:44:00,
2013-11-13 03:49:00,17.2,15.5,30.52,WNW,289,6.0,10.0,93,0.00,,,0.00,Wunderground v.1.15,2013-11-13 08:49:00,
2013-11-13 03:54:00,17.1,15.2,30.52,WSW,257,2.0,7.0,92,0.00,,,0.00,Wunderground v.1.15,2013-11-13 08:54:00,
2013-11-13 03:59:00,17.0,15.1,30.52,WSW,255,1.0,7.0,92,0.00,,,0.00,Wunderground v.1.15,2013-11-13 08:59:00,
2013-11-13 04:04:00,16.9,15.2,30.53,WNW,290,0.0,4.0,93,0.00,,,0.00,Wunderground v.1.15,2013-11-13 09:04:00,
2013-11-13 04:09:00,16.8,15.1,30.53,NNE,19,1.0,5.0,93,0.00,,,0.00,Wunderground v.1.15,2013-11-13 09:09:00,
2013-11-13 04:14:00,16.6,14.9,30.53,NW,316,2.0,5.0,93,0.00,,,0.00,Wunderground v.1.15,2013-11-13 09:14:00,
2013-11-13 04:19:00,16.6,14.9,30.53,WNW,289,1.0,5.0,93,0.00,,,0.00,Wunderground v.1.15,2013-11-13 09:19:00,
2013-11-13 04:24:00,16.6,14.9,30.53,WNW,298,0.0,8.0,93,0.00,,,0.00,Wunderground v.1.15,2013-11-13 09:24:00,
2013-11-13 04:29:00,16.6,14.9,30.54,NW,313,3.0,8.0,93,0.00,,,0.00,Wunderground v.1.15,2013-11-13 09:29:00,
2013-11-13 04:34:00,16.8,15.4,30.54,NW,323,0.0,10.0,94,0.00,,,0.00,Wunderground v.1.15,2013-11-13 09:34:00,
2013-11-13 04:39:00,17.0,15.6,30.54,NW,307,3.0,10.0,94,0.00,,,0.00,Wunderground v.1.15,2013-11-13 09:39:00,
2013-11-13 04:44:00,17.3,15.6,30.55,NW,326,1.0,8.0,93,0.00,,,0.00,Wunderground v.1.15,2013-11-13 09:44:00,
2013-11-13 04:49:00,17.5,15.8,30.55,WNW,301,2.0,8.0,93,0.00,,,0.00,Wunderground v.1.15,2013-11-13 09:49:00,
2013-11-13 04:54:00,17.7,16.0,30.55,North,356,4.0,6.0,93,0.00,,,0.00,Wunderground v.1.15,2013-11-13 09:54:00,
2013-11-13 04:59:00,17.8,15.9,30.55,North,349,4.0,6.0,92,0.00,,,0.00,Wunderground v.1.15,2013-11-13 09:59:00,
2013-11-13 05:04:00,18.0,16.1,30.55,North,5,2.0,8.0,92,0.00,,,0.00,Wunderground v.1.15,2013-11-13 10:04:00,
2013-11-13 05:09:00,18.1,16.2,30.55,NNW,333,1.0,9.0,92,0.00,,,0.00,Wunderground v.1.15,2013-11-13 10:09:00,
2013-11-13 05:14:00,18.1,16.2,30.55,WNW,286,1.0,7.0,92,0.00,,,0.00,Wunderground v.1.15,2013-11-13 10:14:00,
2013-11-13 05:19:00,18.1,16.2,30.55,WNW,286,1.0,7.0,92,0.00,,,0.00,Wunderground v.1.15,2013-11-13 10:19:00,
2013-11-13 05:24:00,-999.9,-99.9,30.55,North,32767,-999.0,1.0,255,-99.99,,,0.00,Wunderground v.1.15,2013-11-13 10:24:00,
2013-11-13 05:29:00,-999.9,-99.9,30.55,North,32767,-999.0,1.0,255,-99.99,,,0.00,Wunderground v.1.15,2013-11-13 10:29:00,
2013-11-13 05:34:00,-999.9,-99.9,30.55,North,32767,-999.0,-999.0,255,-99.99,,,0.00,Wunderground v.1.15,2013-11-13 10:34:00,
2013-11-13 05:39:00,-999.9,-99.9,30.55,North,32767,-999.0,-999.0,255,-99.99,,,0.00,Wunderground v.1.15,2013-11-13 10:39:00,
2013-11-13 05:44:00,-999.9,-99.9,30.55,North,32767,-999.0,-999.0,255,-99.99,,,0.00,Wunderground v.1.15,2013-11-13 10:44:00,
2013-11-13 05:49:00,-999.9,-99.9,30.56,North,32767,-999.0,-999.0,255,-99.99,,,0.00,Wunderground v.1.15,2013-11-13 10:49:00,
2013-11-13 05:55:00,-999.9,-99.9,30.55,North,32767,-999.0,-999.0,255,-99.99,,,0.00,Wunderground v.1.15,2013-11-13 10:55:00,
2013-11-13 06:00:00,-999.9,-99.9,30.55,North,32767,-999.0,-999.0,255,-99.99,,,0.00,Wunderground v.1.15,2013-11-13 11:00:00,
2013-11-13 06:05:00,-999.9,-99.9,30.55,North,32767,-999.0,-999.0,255,-99.99,,,0.00,Wunderground v.1.15,2013-11-13 11:05:00,
2013-11-13 06:09:00,-999.9,-99.9,30.55,North,32767,-999.0,-999.0,255,-99.99,,,0.00,Wunderground v.1.15,2013-11-13 11:09:00,
2013-11-13 06:14:00,-999.9,-99.9,30.55,North,32767,-999.0,-999.0,255,-99.99,,,0.00,Wunderground v.1.15,2013-11-13 11:14:00,
2013-11-13 06:19:00,-999.9,-99.9,30.56,North,32767,-999.0,-999.0,255,-99.99,,,0.00,Wunderground v.1.15,2013-11-13 11:19:00,
2013-11-13 06:24:00,-999.9,-99.9,30.56,North,32767,-999.0,-999.0,255,-99.99,,,0.00,Wunderground v.1.15,2013-11-13 11:24:00,
2013-11-13 06:29:00,-999.9,-99.9,30.56,North,32767,-999.0,-999.0,255,-99.99,,,0.00,Wunderground v.1.15,2013-11-13 11:29:00,
2013-11-13 06:34:00,-999.9,-99.9,30.57,North,32767,-999.0,-999.0,255,-99.99,,,0.00,Wunderground v.1.15,2013-11-13 11:34:00,
2013-11-13 06:39:00,-999.9,-99.9,30.57,North,32767,-999.0,-999.0,255,-99.99,,,0.00,Wunderground v.1.15,2013-11-13 11:39:00,
2013-11-13 06:44:00,-999.9,-99.9,30.57,North,32767,-999.0,-999.0,255,-99.99,,,0.00,Wunderground v.1.15,2013-11-13 11:44:00,
2013-11-13 06:49:00,-999.9,-99.9,30.57,North,32767,-999.0,-999.0,255,-99.99,,,0.00,Wunderground v.1.15,2013-11-13 11:49:00,
2013-11-13 06:54:00,-999.9,-99.9,30.58,North,32767,-999.0,-999.0,255,-99.99,,,0.00,Wunderground v.1.15,2013-11-13 11:54:00,
2013-11-13 06:59:00,-999.9,-99.9,30.58,North,32767,-999.0,-999.0,255,-99.99,,,0.00,Wunderground v.1.15,2013-11-13 11:59:00,
2013-11-13 07:04:00,-999.9,-99.9,30.58,North,32767,-999.0,-999.0,255,-99.99,,,0.00,Wunderground v.1.15,2013-11-13 12:04:00,
2013-11-13 07:10:00,-999.9,-99.9,30.58,North,32767,-999.0,-999.0,255,-99.99,,,0.00,Wunderground v.1.15,2013-11-13 12:10:00,
2013-11-13 07:15:00,-999.9,-99.9,30.58,North,32767,-999.0,-999.0,255,-99.99,,,0.00,Wunderground v.1.15,2013-11-13 12:15:00,
2013-11-13 07:20:00,-999.9,-99.9,30.58,North,32767,-999.0,-999.0,255,-99.99,,,0.00,Wunderground v.1.15,2013-11-13 12:20:00,
2013-11-13 07:25:00,-999.9,-99.9,30.59,North,32767,-999.0,-999.0,255,-99.99,,,0.00,Wunderground v.1.15,2013-11-13 12:25:00,
2013-11-13 07:30:00,-999.9,-99.9,30.59,North,32767,-999.0,-999.0,255,-99.99,,,0.00,Wunderground v.1.15,2013-11-13 12:30:00,
2013-11-13 07:35:00,-999.9,-99.9,30.59,North,32767,-999.0,-999.0,255,-99.99,,,0.00,Wunderground v.1.15,2013-11-13 12:35:00,
2013-11-13 07:40:00,-999.9,-99.9,30.59,North,32767,-999.0,-999.0,255,-99.99,,,0.00,Wunderground v.1.15,2013-11-13 12:40:00,
2013-11-13 07:45:00,-999.9,-99.9,30.59,North,32767,-999.0,-999.0,255,-99.99,,,0.00,Wunderground v.1.15,2013-11-13 12:45:00,
2013-11-13 07:50:00,18.6,16.2,30.59,NW,326,3.0,6.0,90,0.00,,,0.00,Wunderground v.1.15,2013-11-13 12:50:00,
2013-11-13 07:55:00,18.8,16.4,30.60,NW,311,3.0,4.0,90,0.00,,,0.00,Wunderground v.1.15,2013-11-13 12:55:00,
2013-11-13 07:59:00,18.9,16.5,30.60,NW,313,6.0,8.0,90,0.00,,,0.00,Wunderground v.1.15,2013-11-13 12:59:00,
2013-11-13 08:04:00,19.0,16.6,30.60,NW,318,1.0,6.0,90,0.00,,,0.00,Wunderground v.1.15,2013-11-13 13:04:00,
2013-11-13 08:10:00,19.0,16.6,30.60,NNW,340,4.0,4.0,90,0.00,,,0.00,Wunderground v.1.15,2013-11-13 13:10:00,
2013-11-13 08:15:00,19.1,16.7,30.60,WNW,293,6.0,8.0,90,0.00,,,0.00,Wunderground v.1.15,2013-11-13 13:15:00,
2013-11-13 08:20:00,19.2,16.7,30.61,NW,312,5.0,5.0,90,0.00,,,0.00,Wunderground v.1.15,2013-11-13 13:20:00,
2013-11-13 08:25:00,19.2,16.7,30.61,WNW,299,2.0,7.0,90,0.00,,,0.00,Wunderground v.1.15,2013-11-13 13:25:00,
2013-11-13 08:30:00,19.5,17.0,30.61,North,11,5.0,5.0,90,0.00,,,0.00,Wunderground v.1.15,2013-11-13 13:30:00,
2013-11-13 08:35:00,19.6,17.1,30.61,NW,305,2.0,8.0,90,0.00,,,0.00,Wunderground v.1.15,2013-11-13 13:35:00,
2013-11-13 08:40:00,19.9,17.2,30.62,WNW,301,0.0,2.0,89,0.00,,,0.00,Wunderground v.1.15,2013-11-13 13:40:00,
2013-11-13 08:45:00,20.3,17.6,30.62,North,358,3.0,8.0,89,0.00,,,0.00,Wunderground v.1.15,2013-11-13 13:45:00,
2013-11-13 08:50:00,20.6,17.6,30.62,NW,322,6.0,6.0,88,0.00,,,0.00,Wunderground v.1.15,2013-11-13 13:50:00,
2013-11-13 08:55:00,20.9,17.6,30.62,NNE,13,7.0,9.0,87,0.00,,,0.00,Wunderground v.1.15,2013-11-13 13:55:00,
2013-11-13 09:00:00,21.3,17.8,30.62,WNW,300,7.0,8.0,86,0.00,,,0.00,Wunderground v.1.15,2013-11-13 14:00:00,
2013-11-13 09:05:00,21.4,17.6,30.62,NW,308,2.0,11.0,85,0.00,,,0.00,Wunderground v.1.15,2013-11-13 14:05:00,
2013-11-13 09:10:00,21.6,17.5,30.63,WNW,295,4.0,4.0,84,0.00,,,0.00,Wunderground v.1.15,2013-11-13 14:10:00,
2013-11-13 09:15:00,22.0,17.9,30.62,WSW,252,5.0,6.0,84,0.00,,,0.00,Wunderground v.1.15,2013-11-13 14:15:00,
2013-11-13 09:20:00,22.2,17.8,30.63,WNW,287,6.0,7.0,83,0.00,,,0.00,Wunderground v.1.15,2013-11-13 14:20:00,
2013-11-13 09:25:00,22.6,17.9,30.63,WNW,285,0.0,10.0,82,0.00,,,0.00,Wunderground v.1.15,2013-11-13 14:25:00,
2013-11-13 09:30:00,22.9,17.9,30.63,NNE,25,4.0,5.0,81,0.00,,,0.00,Wunderground v.1.15,2013-11-13 14:30:00,
2013-11-13 09:35:00,22.8,17.6,30.63,NW,326,3.0,11.0,80,0.00,,,0.00,Wunderground v.1.15,2013-11-13 14:35:00,
2013-11-13 09:40:00,22.6,17.1,30.63,NW,304,8.0,9.0,79,0.00,,,0.00,Wunderground v.1.15,2013-11-13 14:40:00,
2013-11-13 09:45:00,22.5,17.0,30.63,NNW,332,5.0,13.0,79,0.00,,,0.00,Wunderground v.1.15,2013-11-13 14:45:00,
2013-11-13 09:50:00,22.7,17.2,30.63,NNW,333,4.0,6.0,79,0.00,,,0.00,Wunderground v.1.15,2013-11-13 14:50:00,
2013-11-13 09:55:00,23.0,17.2,30.63,NNE,15,6.0,10.0,78,0.00,,,0.00,Wunderground v.1.15,2013-11-13 14:55:00,
2013-11-13 10:00:00,23.1,17.0,30.64,NNW,336,6.0,9.0,77,0.00,,,0.00,Wunderground v.1.15,2013-11-13 15:00:00,
2013-11-13 10:05:00,23.3,16.2,30.64,NNW,348,11.0,13.0,74,0.00,,,0.00,Wunderground v.1.15,2013-11-13 15:05:00,
2013-11-13 10:10:00,23.2,16.1,30.64,NNW,331,2.0,9.0,74,0.00,,,0.00,Wunderground v.1.15,2013-11-13 15:10:00,
2013-11-13 10:15:00,23.3,16.5,30.64,NW,314,3.0,9.0,75,0.00,,,0.00,Wunderground v.1.15,2013-11-13 15:15:00,
2013-11-13 10:20:00,23.8,17.0,30.64,NNW,328,1.0,4.0,75,0.00,,,0.00,Wunderground v.1.15,2013-11-13 15:20:00,
2013-11-13 10:25:00,24.0,16.9,30.64,WNW,286,3.0,11.0,74,0.00,,,0.00,Wunderground v.1.15,2013-11-13 15:25:00,
2013-11-13 10:30:00,24.1,16.7,30.64,NNW,330,1.0,3.0,73,0.00,,,0.00,Wunderground v.1.15,2013-11-13 15:30:00,
2013-11-13 10:35:00,24.3,17.2,30.64,NW,309,1.0,5.0,74,0.00,,,0.00,Wunderground v.1.15,2013-11-13 15:35:00,
2013-11-13 10:40:00,24.6,17.2,30.64,West,281,2.0,2.0,73,0.00,,,0.00,Wunderground v.1.15,2013-11-13 15:40:00,
2013-11-13 10:45:00,24.9,17.8,30.64,NW,314,1.0,7.0,74,0.00,,,0.00,Wunderground v.1.15,2013-11-13 15:45:00,
2013-11-13 10:50:00,25.1,17.3,30.64,NNW,334,5.0,6.0,72,0.00,,,0.00,Wunderground v.1.15,2013-11-13 15:50:00,
2013-11-13 10:55:00,25.2,17.8,30.64,SW,222,3.0,6.0,73,0.00,,,0.00,Wunderground v.1.15,2013-11-13 15:55:00,
2013-11-13 11:00:00,25.4,17.3,30.64,NW,309,4.0,6.0,71,0.00,,,0.00,Wunderground v.1.15,2013-11-13 16:00:00,
2013-11-13 11:05:00,25.8,18.0,30.64,NW,315,3.0,6.0,72,0.00,,,0.00,Wunderground v.1.15,2013-11-13 16:05:00,
2013-11-13 11:10:00,26.2,17.4,30.64,West,280,4.0,4.0,69,0.00,,,0.00,Wunderground v.1.15,2013-11-13 16:10:00,
2013-11-13 11:15:00,26.1,16.6,30.64,WNW,285,2.0,8.0,67,0.00,,,0.00,Wunderground v.1.15,2013-11-13 16:15:00,
2013-11-13 11:20:00,26.0,16.2,30.64,NW,317,2.0,4.0,66,0.00,,,0.00,Wunderground v.1.15,2013-11-13 16:20:00,
2013-11-13 11:25:00,26.1,15.9,30.63,West,278,2.0,8.0,65,0.00,,,0.00,Wunderground v.1.15,2013-11-13 16:25:00,
2013-11-13 11:30:00,26.4,16.2,30.63,West,281,2.0,4.0,65,0.00,,,0.00,Wunderground v.1.15,2013-11-13 16:30:00,
2013-11-13 11:35:00,26.7,17.2,30.63,North,356,3.0,8.0,67,0.00,,,0.00,Wunderground v.1.15,2013-11-13 16:35:00,
2013-11-13 11:40:00,27.0,17.8,30.63,NW,309,0.0,3.0,68,0.00,,,0.00,Wunderground v.1.15,2013-11-13 16:40:00,
2013-11-13 11:45:00,27.0,16.8,30.63,WSW,246,1.0,9.0,65,0.00,,,0.00,Wunderground v.1.15,2013-11-13 16:45:00,
2013-11-13 11:50:00,27.0,16.8,30.62,NNW,328,1.0,3.0,65,0.00,,,0.00,Wunderground v.1.15,2013-11-13 16:50:00,
2013-11-13 11:55:00,27.4,17.5,30.62,WSW,254,2.0,6.0,66,0.00,,,0.00,Wunderground v.1.15,2013-11-13 16:55:00,
2013-11-13 12:00:00,27.9,17.6,30.62,North,350,0.0,2.0,65,0.00,,,0.00,Wunderground v.1.15,2013-11-13 17:00:00,
2013-11-13 12:05:00,28.2,18.3,30.62,WSW,253,3.0,10.0,66,0.00,,,0.00,Wunderground v.1.15,2013-11-13 17:05:00,
2013-11-13 12:10:00,27.7,17.5,30.62,WNW,302,8.0,8.0,65,0.00,,,0.00,Wunderground v.1.15,2013-11-13 17:10:00,
2013-11-13 12:15:00,27.3,17.4,30.62,West,277,2.0,8.0,66,0.00,,,0.00,Wunderground v.1.15,2013-11-13 17:15:00,
2013-11-13 12:20:00,27.4,17.9,30.62,West,273,4.0,6.0,67,0.00,,,0.00,Wunderground v.1.15,2013-11-13 17:20:00,
2013-11-13 12:25:00,27.3,17.4,30.61,WNW,302,3.0,10.0,66,0.00,,,0.00,Wunderground v.1.15,2013-11-13 17:25:00,
2013-11-13 12:30:00,27.6,18.4,30.61,West,274,5.0,5.0,68,0.00,,,0.00,Wunderground v.1.15,2013-11-13 17:30:00,
2013-11-13 12:35:00,27.8,18.3,30.61,NW,324,4.0,8.0,67,0.00,,,0.00,Wunderground v.1.15,2013-11-13 17:35:00,
2013-11-13 12:40:00,28.0,18.5,30.61,WNW,302,7.0,8.0,67,0.00,,,0.00,Wunderground v.1.15,2013-11-13 17:40:00,
2013-11-13 12:45:00,28.1,18.2,30.61,NW,319,6.0,9.0,66,0.00,,,0.00,Wunderground v.1.15,2013-11-13 17:45:00,
2013-11-13 12:50:00,28.1,17.8,30.61,SW,222,2.0,3.0,65,0.00,,,0.00,Wunderground v.1.15,2013-11-13 17:50:00,
2013-11-13 12:55:00,27.8,17.2,30.61,North,9,9.0,9.0,64,0.00,,,0.00,Wunderground v.1.15,2013-11-13 17:55:00,
2013-11-13 13:00:00,28.0,17.4,30.61,NW,305,3.0,5.0,64,0.00,,,0.00,Wunderground v.1.15,2013-11-13 18:00:00,
2013-11-13 13:05:00,28.2,17.2,30.61,WNW,291,5.0,16.0,63,0.00,,,0.00,Wunderground v.1.15,2013-11-13 18:05:00,
2013-11-13 13:10:00,28.7,18.1,30.61,WNW,300,4.0,7.0,64,0.00,,,0.00,Wunderground v.1.15,2013-11-13 18:10:00,
2013-11-13 13:15:00,28.6,17.2,30.61,NW,314,5.0,12.0,62,0.00,,,0.00,Wunderground v.1.15,2013-11-13 18:15:00,
2013-11-13 13:20:00,28.7,16.9,30.60,WNW,285,3.0,4.0,61,0.00,,,0.00,Wunderground v.1.15,2013-11-13 18:20:00,
2013-11-13 13:25:00,29.0,17.6,30.60,WNW,294,5.0,8.0,62,0.00,,,0.00,Wunderground v.1.15,2013-11-13 18:25:00,
2013-11-13 13:30:00,28.9,17.9,30.60,West,262,3.0,6.0,63,0.00,,,0.00,Wunderground v.1.15,2013-11-13 18:30:00,
2013-11-13 13:35:00,28.9,18.2,30.60,WNW,299,7.0,10.0,64,0.00,,,0.00,Wunderground v.1.15,2013-11-13 18:35:00,
2013-11-13 13:40:00,29.0,18.0,30.60,NW,319,3.0,5.0,63,0.00,,,0.00,Wunderground v.1.15,2013-11-13 18:40:00,
2013-11-13 13:45:00,29.1,17.7,30.60,West,275,2.0,10.0,62,0.00,,,0.00,Wunderground v.1.15,2013-11-13 18:45:00,
2013-11-13 13:50:00,29.3,17.9,30.60,WNW,282,4.0,5.0,62,0.00,,,0.00,Wunderground v.1.15,2013-11-13 18:50:00,
2013-11-13 13:55:00,29.4,17.6,30.59,WNW,302,3.0,9.0,61,0.00,,,0.00,Wunderground v.1.15,2013-11-13 18:55:00,
2013-11-13 14:00:00,29.8,18.7,30.59,NW,307,4.0,10.0,63,0.00,,,0.00,Wunderground v.1.15,2013-11-13 19:00:00,
2013-11-13 14:05:00,29.9,17.7,30.59,WNW,293,4.0,10.0,60,0.00,,,0.00,Wunderground v.1.15,2013-11-13 19:05:00,
2013-11-13 14:10:00,29.8,17.6,30.59,NW,324,2.0,4.0,60,0.00,,,0.00,Wunderground v.1.15,2013-11-13 19:10:00,
2013-11-13 14:15:00,30.0,17.8,30.59,NW,323,4.0,9.0,60,0.00,,,0.00,Wunderground v.1.15,2013-11-13 19:15:00,
2013-11-13 14:20:00,29.9,17.3,30.59,WNW,292,2.0,7.0,59,0.00,,,0.00,Wunderground v.1.15,2013-11-13 19:20:00,
2013-11-13 14:25:00,30.1,18.3,30.59,NW,315,6.0,10.0,61,0.00,,,0.00,Wunderground v.1.15,2013-11-13 19:25:00,
2013-11-13 14:30:00,30.0,17.8,30.59,WNW,294,3.0,7.0,60,0.00,,,0.00,Wunderground v.1.15,2013-11-13 19:30:00,
2013-11-13 14:35:00,30.1,17.5,30.58,WSW,256,4.0,9.0,59,0.00,,,0.00,Wunderground v.1.15,2013-11-13 19:35:00,
2013-11-13 14:40:00,30.2,17.6,30.59,WNW,303,4.0,6.0,59,0.00,,,0.00,Wunderground v.1.15,2013-11-13 19:40:00,
2013-11-13 14:45:00,30.1,17.1,30.58,WSW,253,8.0,8.0,58,0.00,,,0.00,Wunderground v.1.15,2013-11-13 19:45:00,
2013-11-13 14:50:00,30.2,18.0,30.58,West,270,3.0,3.0,60,0.00,,,0.00,Wunderground v.1.15,2013-11-13 19:50:00,
2013-11-13 14:55:00,30.5,17.5,30.59,WNW,290,3.0,7.0,58,0.00,,,0.00,Wunderground v.1.15,2013-11-13 19:55:00,
2013-11-13 15:00:00,30.5,17.9,30.58,WSW,250,1.0,3.0,59,0.00,,,0.00,Wunderground v.1.15,2013-11-13 20:00:00,
2013-11-13 15:05:00,30.5,17.5,30.58,SW,219,0.0,6.0,58,0.00,,,0.00,Wunderground v.1.15,2013-11-13 20:05:00,
2013-11-13 15:10:00,31.0,18.3,30.59,SW,232,3.0,6.0,59,0.00,,,0.00,Wunderground v.1.15,2013-11-13 20:10:00,
2013-11-13 15:15:00,31.1,18.0,30.59,WSW,250,1.0,6.0,58,0.00,,,0.00,Wunderground v.1.15,2013-11-13 20:15:00,
2013-11-13 15:20:00,30.9,18.2,30.58,WNW,282,1.0,2.0,59,0.00,,,0.00,Wunderground v.1.15,2013-11-13 20:20:00,
2013-11-13 15:25:00,30.9,18.2,30.58,West,261,5.0,8.0,59,0.00,,,0.00,Wunderground v.1.15,2013-11-13 20:25:00,
2013-11-13 15:30:00,31.2,18.9,30.59,WNW,288,3.0,4.0,60,0.00,,,0.00,Wunderground v.1.15,2013-11-13 20:30:00,
2013-11-13 15:35:00,31.1,17.6,30.59,SSW,197,2.0,7.0,57,0.00,,,0.00,Wunderground v.1.15,2013-11-13 20:35:00,
2013-11-13 15:40:00,31.4,18.7,30.58,WSW,253,0.0,4.0,59,0.00,,,0.00,Wunderground v.1.15,2013-11-13 20:40:00,
2013-11-13 15:45:00,31.5,18.8,30.59,East,89,1.0,4.0,59,0.00,,,0.00,Wunderground v.1.15,2013-11-13 20:45:00,
2013-11-13 15:50:00,31.7,19.4,30.58,WNW,302,3.0,3.0,60,0.00,,,0.00,Wunderground v.1.15,2013-11-13 20:50:00,
2013-11-13 15:55:00,31.3,19.0,30.58,NW,323,2.0,6.0,60,0.00,,,0.00,Wunderground v.1.15,2013-11-13 20:55:00,
2013-11-13 16:00:00,31.3,18.6,30.58,NW,304,2.0,3.0,59,0.00,,,0.00,Wunderground v.1.15,2013-11-13 21:00:00,
2013-11-13 16:05:00,31.6,19.3,30.58,NNE,23,2.0,5.0,60,0.00,,,0.00,Wunderground v.1.15,2013-11-13 21:05:00,
2013-11-13 16:10:00,31.4,19.1,30.58,WNW,302,1.0,2.0,60,0.00,,,0.00,Wunderground v.1.15,2013-11-13 21:10:00,
2013-11-13 16:15:00,31.2,18.5,30.58,WNW,300,1.0,5.0,59,0.00,,,0.00,Wunderground v.1.15,2013-11-13 21:15:00,
2013-11-13 16:20:00,31.1,18.8,30.58,NNW,347,2.0,2.0,60,0.00,,,0.00,Wunderground v.1.15,2013-11-13 21:20:00,
2013-11-13 16:25:00,30.9,18.2,30.58,WNW,293,2.0,6.0,59,0.00,,,0.00,Wunderground v.1.15,2013-11-13 21:25:00,
2013-11-13 16:30:00,30.8,18.5,30.58,NW,316,0.0,2.0,60,0.00,,,0.00,Wunderground v.1.15,2013-11-13 21:30:00,
2013-11-13 16:35:00,30.9,19.4,30.58,NW,312,0.0,4.0,62,0.00,,,0.00,Wunderground v.1.15,2013-11-13 21:35:00,
2013-11-13 16:40:00,30.7,18.8,30.58,West,273,1.0,1.0,61,0.00,,,0.00,Wunderground v.1.15,2013-11-13 21:40:00,
2013-11-13 16:45:00,30.6,19.1,30.58,NW,312,0.0,5.0,62,0.00,,,0.00,Wunderground v.1.15,2013-11-13 21:45:00,
2013-11-13 16:50:00,30.5,19.4,30.58,WSW,258,1.0,1.0,63,0.00,,,0.00,Wunderground v.1.15,2013-11-13 21:50:00,
2013-11-13 16:55:00,30.2,19.1,30.58,NW,308,1.0,2.0,63,0.00,,,0.00,Wunderground v.1.15,2013-11-13 21:55:00,
2013-11-13 17:00:00,29.8,19.5,30.58,NNE,17,2.0,2.0,65,0.00,,,0.00,Wunderground v.1.15,2013-11-13 22:00:00,
2013-11-13 17:05:00,29.3,19.0,30.58,SSW,205,1.0,2.0,65,0.00,,,0.00,Wunderground v.1.15,2013-11-13 22:05:00,
2013-11-13 17:10:00,28.8,18.9,30.58,WSW,257,0.0,1.0,66,0.00,,,0.00,Wunderground v.1.15,2013-11-13 22:10:00,
2013-11-13 17:15:00,28.5,18.9,30.58,WSW,252,2.0,4.0,67,0.00,,,0.00,Wunderground v.1.15,2013-11-13 22:15:00,
2013-11-13 17:20:00,28.2,19.0,30.58,West,266,0.0,1.0,68,0.00,,,0.00,Wunderground v.1.15,2013-11-13 22:20:00,
2013-11-13 17:25:00,28.0,18.8,30.58,WSW,256,0.0,1.0,68,0.00,,,0.00,Wunderground v.1.15,2013-11-13 22:25:00,
2013-11-13 17:30:00,27.6,18.8,30.58,West,269,1.0,1.0,69,0.00,,,0.00,Wunderground v.1.15,2013-11-13 22:30:00,
2013-11-13 17:35:00,27.4,18.6,30.58,WSW,240,0.0,2.0,69,0.00,,,0.00,Wunderground v.1.15,2013-11-13 22:35:00,
2013-11-13 17:40:00,27.3,18.8,30.58,WSW,249,0.0,0.0,70,0.00,,,0.00,Wunderground v.1.15,2013-11-13 22:40:00,
2013-11-13 17:45:00,27.1,18.6,30.58,West,260,0.0,2.0,70,0.00,,,0.00,Wunderground v.1.15,2013-11-13 22:45:00,
2013-11-13 17:50:00,27.0,18.2,30.58,WSW,248,0.0,1.0,69,0.00,,,0.00,Wunderground v.1.15,2013-11-13 22:50:00,
2013-11-13 17:55:00,26.8,18.0,30.58,West,262,2.0,4.0,69,0.00,,,0.00,Wunderground v.1.15,2013-11-13 22:55:00,
2013-11-13 18:00:00,26.7,17.9,30.58,West,260,1.0,3.0,69,0.00,,,0.00,Wunderground v.1.15,2013-11-13 23:00:00,
2013-11-13 18:05:00,26.6,17.8,30.58,WSW,239,1.0,3.0,69,0.00,,,0.00,Wunderground v.1.15,2013-11-13 23:05:00,
2013-11-13 18:10:00,26.6,17.8,30.58,WSW,242,0.0,1.0,69,0.00,,,0.00,Wunderground v.1.15,2013-11-13 23:10:00,
2013-11-13 18:15:00,26.5,17.7,30.58,West,264,1.0,2.0,69,0.00,,,0.00,Wunderground v.1.15,2013-11-13 23:15:00,
2013-11-13 18:20:00,26.2,17.4,30.58,West,262,1.0,1.0,69,0.00,,,0.00,Wunderground v.1.15,2013-11-13 23:20:00,
2013-11-13 18:25:00,26.1,17.6,30.58,WSW,255,0.0,2.0,70,0.00,,,0.00,Wunderground v.1.15,2013-11-13 23:25:00,
2013-11-13 18:30:00,25.9,17.5,30.58,WSW,255,0.0,0.0,70,0.00,,,0.00,Wunderground v.1.15,2013-11-13 23:30:00,
2013-11-13 18:35:00,25.8,17.7,30.58,West,262,0.0,1.0,71,0.00,,,0.00,Wunderground v.1.15,2013-11-13 23:35:00,
2013-11-13 18:40:00,25.7,17.3,30.58,SW,224,1.0,1.0,70,0.00,,,0.00,Wunderground v.1.15,2013-11-13 23:40:00,
2013-11-13 18:45:00,25.7,17.3,30.58,SW,221,0.0,1.0,70,0.00,,,0.00,Wunderground v.1.15,2013-11-13 23:45:00,
2013-11-13 18:50:00,25.7,17.3,30.57,SW,235,1.0,1.0,70,0.00,,,0.00,Wunderground v.1.15,2013-11-13 23:50:00,
2013-11-13 18:55:00,25.5,17.1,30.57,WSW,245,1.0,1.0,70,0.00,,,0.00,Wunderground v.1.15,2013-11-13 23:55:00,
2013-11-13 19:00:00,25.5,17.1,30.57,WSW,255,0.0,1.0,70,0.00,,,0.00,Wunderground v.1.15,2013-11-14 00:00:00,
2013-11-13 19:05:00,25.4,17.0,30.57,SW,226,2.0,2.0,70,0.00,,,0.00,Wunderground v.1.15,2013-11-14 00:05:00,
2013-11-13 19:10:00,25.4,17.0,30.57,WSW,256,0.0,1.0,70,0.00,,,0.00,Wunderground v.1.15,2013-11-14 00:10:00,
2013-11-13 19:15:00,25.4,17.0,30.57,SW,233,4.0,4.0,70,0.00,,,0.00,Wunderground v.1.15,2013-11-14 00:15:00,
2013-11-13 19:20:00,25.4,17.0,30.57,SW,226,0.0,2.0,70,0.00,,,0.00,Wunderground v.1.15,2013-11-14 00:20:00,
2013-11-13 19:25:00,25.3,16.9,30.57,SW,219,1.0,2.0,70,0.00,,,0.00,Wunderground v.1.15,2013-11-14 00:25:00,
2013-11-13 19:31:00,25.1,16.7,30.57,WSW,245,1.0,2.0,70,0.00,,,0.00,Wunderground v.1.15,2013-11-14 00:31:00,
2013-11-13 19:36:00,25.0,16.9,30.57,West,260,0.0,2.0,71,0.00,,,0.00,Wunderground v.1.15,2013-11-14 00:36:00,
2013-11-13 19:41:00,25.0,16.6,30.57,West,274,0.0,1.0,70,0.00,,,0.00,Wunderground v.1.15,2013-11-14 00:41:00,
2013-11-13 19:46:00,24.8,16.7,30.57,WSW,250,0.0,1.0,71,0.00,,,0.00,Wunderground v.1.15,2013-11-14 00:46:00,
2013-11-13 19:51:00,24.7,16.6,30.57,SSW,197,0.0,0.0,71,0.00,,,0.00,Wunderground v.1.15,2013-11-14 00:51:00,
2013-11-13 19:56:00,24.2,16.5,30.57,SSW,205,0.0,1.0,72,0.00,,,0.00,Wunderground v.1.15,2013-11-14 00:56:00,
2013-11-13 20:01:00,24.0,16.6,30.57,SSW,205,0.0,0.0,73,0.00,,,0.00,Wunderground v.1.15,2013-11-14 01:01:00,
2013-11-13 20:06:00,23.9,16.5,30.56,SSW,205,0.0,0.0,73,0.00,,,0.00,Wunderground v.1.15,2013-11-14 01:06:00,
2013-11-13 20:11:00,23.6,16.2,30.56,SSW,197,0.0,0.0,73,0.00,,,0.00,Wunderground v.1.15,2013-11-14 01:11:00,
2013-11-13 20:16:00,23.5,16.4,30.56,SSW,213,0.0,2.0,74,0.00,,,0.00,Wunderground v.1.15,2013-11-14 01:16:00,
2013-11-13 20:21:00,23.6,16.5,30.56,WSW,245,0.0,1.0,74,0.00,,,0.00,Wunderground v.1.15,2013-11-14 01:21:00,
2013-11-13 20:26:00,23.9,16.8,30.56,SSW,197,2.0,2.0,74,0.00,,,0.00,Wunderground v.1.15,2013-11-14 01:26:00,
2013-11-13 20:31:00,23.9,16.5,30.56,SSW,200,0.0,1.0,73,0.00,,,0.00,Wunderground v.1.15,2013-11-14 01:31:00,
2013-11-13 20:36:00,23.9,16.8,30.56,WSW,252,0.0,1.0,74,0.00,,,0.00,Wunderground v.1.15,2013-11-14 01:36:00,
2013-11-13 20:41:00,24.0,16.6,30.56,SW,219,0.0,0.0,73,0.00,,,0.00,Wunderground v.1.15,2013-11-14 01:41:00,
2013-11-13 20:46:00,24.0,16.6,30.55,WSW,242,1.0,2.0,73,0.00,,,0.00,Wunderground v.1.15,2013-11-14 01:46:00,
2013-11-13 20:51:00,24.2,16.8,30.55,SSW,210,0.0,1.0,73,0.00,,,0.00,Wunderground v.1.15,2013-11-14 01:51:00,
2013-11-13 20:56:00,24.3,16.9,30.55,West,278,3.0,5.0,73,0.00,,,0.00,Wunderground v.1.15,2013-11-14 01:56:00,
2013-11-13 21:01:00,24.7,17.0,30.55,SW,229,2.0,4.0,72,0.00,,,0.00,Wunderground v.1.15,2013-11-14 02:01:00,
2013-11-13 21:06:00,24.8,17.1,30.55,West,259,1.0,4.0,72,0.00,,,0.00,Wunderground v.1.15,2013-11-14 02:06:00,
2013-11-13 21:11:00,24.8,17.1,30.55,WNW,286,1.0,2.0,72,0.00,,,0.00,Wunderground v.1.15,2013-11-14 02:11:00,
2013-11-13 21:16:00,24.9,17.1,30.55,WSW,242,0.0,6.0,72,0.00,,,0.00,Wunderground v.1.15,2013-11-14 02:16:00,
2013-11-13 21:21:00,24.9,17.1,30.55,SSW,197,1.0,2.0,72,0.00,,,0.00,Wunderground v.1.15,2013-11-14 02:21:00,
2013-11-13 21:26:00,24.6,16.9,30.55,SSW,205,0.0,2.0,72,0.00,,,0.00,Wunderground v.1.15,2013-11-14 02:26:00,
2013-11-13 21:31:00,24.1,16.7,30.55,SSW,210,0.0,1.0,73,0.00,,,0.00,Wunderground v.1.15,2013-11-14 02:31:00,
2013-11-13 21:36:00,23.8,16.7,30.54,SSW,210,0.0,1.0,74,0.00,,,0.00,Wunderground v.1.15,2013-11-14 02:36:00,
2013-11-13 21:41:00,23.7,16.9,30.54,SW,231,0.0,2.0,75,0.00,,,0.00,Wunderground v.1.15,2013-11-14 02:41:00,
2013-11-13 21:46:00,23.8,17.0,30.54,SW,224,0.0,2.0,75,0.00,,,0.00,Wunderground v.1.15,2013-11-14 02:46:00,
2013-11-13 21:51:00,23.9,17.1,30.55,SSW,208,0.0,1.0,75,0.00,,,0.00,Wunderground v.1.15,2013-11-14 02:51:00,
2013-11-13 21:56:00,23.6,16.8,30.54,SSW,208,0.0,1.0,75,0.00,,,0.00,Wunderground v.1.15,2013-11-14 02:56:00,
2013-11-13 22:01:00,23.5,17.0,30.54,SW,214,1.0,1.0,76,0.00,,,0.00,Wunderground v.1.15,2013-11-14 03:01:00,
2013-11-13 22:06:00,23.6,17.1,30.54,SW,226,0.0,2.0,76,0.00,,,0.00,Wunderground v.1.15,2013-11-14 03:06:00,
2013-11-13 22:11:00,23.8,17.3,30.54,WSW,252,0.0,3.0,76,0.00,,,0.00,Wunderground v.1.15,2013-11-14 03:11:00,
2013-11-13 22:16:00,23.9,17.4,30.54,SSW,202,0.0,3.0,76,0.00,,,0.00,Wunderground v.1.15,2013-11-14 03:16:00,
2013-11-13 22:21:00,23.9,17.4,30.54,SSW,200,0.0,0.0,76,0.00,,,0.00,Wunderground v.1.15,2013-11-14 03:21:00,
2013-11-13 22:26:00,23.7,17.2,30.54,SSW,197,0.0,1.0,76,0.00,,,0.00,Wunderground v.1.15,2013-11-14 03:26:00,
2013-11-13 22:31:00,23.5,17.0,30.54,SSW,197,0.0,0.0,76,0.00,,,0.00,Wunderground v.1.15,2013-11-14 03:31:00,
2013-11-13 22:36:00,23.4,16.9,30.54,SSW,197,0.0,0.0,76,0.00,,,0.00,Wunderground v.1.15,2013-11-14 03:36:00,
2013-11-13 22:41:00,23.5,17.0,30.54,SSW,197,0.0,0.0,76,0.00,,,0.00,Wunderground v.1.15,2013-11-14 03:41:00,
2013-11-13 22:46:00,23.4,16.9,30.53,SSW,198,0.0,0.0,76,0.00,,,0.00,Wunderground v.1.15,2013-11-14 03:46:00,
2013-11-13 22:51:00,23.2,16.8,30.53,SSW,197,0.0,0.0,76,0.00,,,0.00,Wunderground v.1.15,2013-11-14 03:51:00,
2013-11-13 22:56:00,23.1,16.7,30.53,SSW,198,0.0,1.0,76,0.00,,,0.00,Wunderground v.1.15,2013-11-14 03:56:00,
2013-11-13 23:01:00,22.8,16.4,30.53,SSW,198,0.0,0.0,76,0.00,,,0.00,Wunderground v.1.15,2013-11-14 04:01:00,
2013-11-13 23:06:00,22.5,16.4,30.53,SSW,197,0.0,0.0,77,0.00,,,0.00,Wunderground v.1.15,2013-11-14 04:06:00,
2013-11-13 23:11:00,22.4,16.3,30.53,SSW,198,0.0,1.0,77,0.00,,,0.00,Wunderground v.1.15,2013-11-14 04:11:00,
2013-11-13 23:16:00,22.1,16.0,30.53,SSW,197,0.0,1.0,77,0.00,,,0.00,Wunderground v.1.15,2013-11-14 04:16:00,
2013-11-13 23:21:00,22.1,16.6,30.53,SSW,198,1.0,1.0,79,0.00,,,0.00,Wunderground v.1.15,2013-11-14 04:21:00,
2013-11-13 23:26:00,22.4,16.9,30.53,SSW,198,0.0,1.0,79,0.00,,,0.00,Wunderground v.1.15,2013-11-14 04:26:00,
2013-11-13 23:31:00,22.6,16.8,30.53,SSW,197,0.0,0.0,78,0.00,,,0.00,Wunderground v.1.15,2013-11-14 04:31:00,
2013-11-13 23:36:00,22.7,16.9,30.53,SSW,197,0.0,1.0,78,0.00,,,0.00,Wunderground v.1.15,2013-11-14 04:36:00,
2013-11-13 23:41:00,22.5,16.7,30.52,SSW,198,0.0,1.0,78,0.00,,,0.00,Wunderground v.1.15,2013-11-14 04:41:00,
2013-11-13 23:46:00,22.3,16.5,30.52,SSW,197,1.0,1.0,78,0.00,,,0.00,Wunderground v.1.15,2013-11-14 04:46:00,
2013-11-13 23:51:00,22.4,16.6,30.52,SSW,197,1.0,1.0,78,0.00,,,0.00,Wunderground v.1.15,2013-11-14 04:51:00,
2013-11-13 23:56:00,22.7,16.9,30.52,SSW,197,0.0,1.0,78,0.00,,,0.00,Wunderground v.1.15,2013-11-14 04:56:00,